Time;durP1;ratioP1;P1;durP2;ratioP2;P2;SDS_P1;SDS_P2;PMS_P1;PMS_P2;Temp;Humidity;BMP_temperature;BMP_pressure;BME280_temperature;BME280_humidity;BME280_pressure;Samples;Min_cycle;Max_cycle;Signal;HPM_P1;HPM_P2
2023/06/22 00:01:26;;;;;;;;;;;26.90;46.00;;;;;;1550340;75;1172;-80
2023/06/22 00:03:28;;;;;;;;;;;26.90;45.90;;;;;;1548087;75;774;-79
2023/06/22 00:05:30;;;;;;;;;;;26.90;46.00;;;;;;1546236;75;697;-80
2023/06/22 00:07:31;;;;;;;;;;;26.90;46.00;;;;;;1547073;75;1425;-79
2023/06/22 00:09:33;;;;;;;;;;;26.90;46.00;;;;;;1553340;75;688;-78
2023/06/22 00:12:14;;;;;;;;;;;26.90;46.20;;;;;;1607805;72;674;-65
2023/06/22 00:14:16;;;;;;;;;;;26.90;46.50;;;;;;1584149;73;717;-64
2023/06/22 00:16:18;;;;;;;;;;;26.80;46.60;;;;;;1585353;73;661;-63
2023/06/22 00:18:20;;;;;;;;;;;26.80;46.80;;;;;;1570826;73;1222;-63
2023/06/22 00:20:22;;;;;;;;;;;26.80;47.00;;;;;;1561443;74;1539;-63
2023/06/22 00:22:27;;;;;;;;;;;26.80;46.50;;;;;;1561680;74;751;-64
2023/06/22 00:24:28;;;;;;;;;;;26.90;46.50;;;;;;1556724;75;1693;-63
2023/06/22 00:26:30;;;;;;;;;;;26.80;46.50;;;;;;1550330;75;678;-65
2023/06/22 00:28:34;;;;;;;;;;;26.70;46.50;;;;;;1551201;74;1170;-64
2023/06/22 00:30:36;;;;;;;;;;;26.80;46.50;;;;;;1560784;74;1915;-65
2023/06/22 00:32:38;;;;;;;;;;;26.80;46.80;;;;;;1546205;74;779;-65
2023/06/22 00:34:40;;;;;;;;;;;26.80;46.80;;;;;;1577240;75;1597;-63
2023/06/22 00:36:42;;;;;;;;;;;26.80;46.40;;;;;;1548983;74;646;-62
2023/06/22 00:38:43;;;;;;;;;;;26.90;46.50;;;;;;1573243;74;1158;-62
2023/06/22 00:40:45;;;;;;;;;;;26.80;46.40;;;;;;1556995;74;669;-64
2023/06/22 00:42:47;;;;;;;;;;;26.80;46.40;;;;;;1557816;75;766;-66
2023/06/22 00:44:49;;;;;;;;;;;26.80;46.50;;;;;;1558380;75;731;-66
2023/06/22 00:46:53;;;;;;;;;;;26.80;46.20;;;;;;1561226;74;711;-66
2023/06/22 00:48:57;;;;;;;;;;;26.90;46.00;;;;;;1561236;74;1719;-64
2023/06/22 00:50:58;;;;;;;;;;;26.80;46.10;;;;;;1554899;74;1918;-63
2023/06/22 00:53:00;;;;;;;;;;;26.90;46.20;;;;;;1575704;75;724;-63
2023/06/22 00:55:02;;;;;;;;;;;26.90;46.20;;;;;;1553279;75;725;-63
2023/06/22 00:57:04;;;;;;;;;;;26.80;46.50;;;;;;1556459;74;794;-63
2023/06/22 00:59:06;;;;;;;;;;;26.90;46.30;;;;;;1571150;74;1080;-63
2023/06/22 01:01:08;;;;;;;;;;;26.90;46.50;;;;;;1543377;74;708;-65
2023/06/22 01:03:10;;;;;;;;;;;26.80;46.00;;;;;;1558462;74;1336;-65
2023/06/22 01:05:14;;;;;;;;;;;26.80;46.40;;;;;;1560439;75;775;-64
2023/06/22 01:07:24;;;;;;;;;;;26.80;46.10;;;;;;1576473;75;1851;-63
2023/06/22 01:09:29;;;;;;;;;;;26.80;45.90;;;;;;1533549;75;1132;-64
2023/06/22 01:11:39;;;;;;;;;;;26.80;45.80;;;;;;1561631;75;1936;-63
2023/06/22 01:13:51;;;;;;;;;;;26.80;45.80;;;;;;1541014;75;678;-63
2023/06/22 01:15:56;;;;;;;;;;;26.80;45.70;;;;;;1546911;75;734;-64
2023/06/22 01:17:58;;;;;;;;;;;26.70;45.90;;;;;;1539983;75;1806;-63
2023/06/22 01:20:00;;;;;;;;;;;26.80;45.80;;;;;;1543534;75;773;-62
2023/06/22 01:22:02;;;;;;;;;;;26.70;45.80;;;;;;1561100;75;799;-63
2023/06/22 01:24:14;;;;;;;;;;;26.80;46.10;;;;;;1552262;75;618;-64
2023/06/22 01:26:21;;;;;;;;;;;26.80;45.90;;;;;;1540542;75;715;-63
2023/06/22 01:28:41;;;;;;;;;;;26.80;45.80;;;;;;1536831;75;1167;-64
2023/06/22 01:30:43;;;;;;;;;;;26.80;45.70;;;;;;1547551;75;1921;-63
2023/06/22 01:32:45;;;;;;;;;;;26.70;45.80;;;;;;1549330;75;682;-63
2023/06/22 01:34:47;;;;;;;;;;;26.70;45.80;;;;;;1547856;75;748;-64
2023/06/22 01:36:49;;;;;;;;;;;26.70;45.80;;;;;;1546174;75;793;-63
2023/06/22 01:38:50;;;;;;;;;;;26.70;45.80;;;;;;1541893;75;1155;-64
2023/06/22 01:40:52;;;;;;;;;;;26.70;45.70;;;;;;1561856;75;728;-63
2023/06/22 01:42:54;;;;;;;;;;;26.70;45.60;;;;;;1551014;75;727;-63
2023/06/22 01:44:56;;;;;;;;;;;26.80;45.60;;;;;;1556150;75;1426;-65
2023/06/22 01:46:58;;;;;;;;;;;26.70;45.50;;;;;;1537864;75;651;-64
2023/06/22 01:49:00;;;;;;;;;;;26.70;45.60;;;;;;1550046;75;1167;-64
2023/06/22 01:51:02;;;;;;;;;;;26.80;45.50;;;;;;1545854;75;1933;-63
2023/06/22 01:53:06;;;;;;;;;;;26.70;45.50;;;;;;1553600;75;706;-63
2023/06/22 01:55:08;;;;;;;;;;;26.70;45.60;;;;;;1560190;75;1530;-63
2023/06/22 01:57:10;;;;;;;;;;;26.70;45.60;;;;;;1551047;75;728;-63
2023/06/22 01:59:12;;;;;;;;;;;26.80;45.50;;;;;;1553066;75;1327;-63
2023/06/22 02:01:14;;;;;;;;;;;26.80;45.60;;;;;;1566225;75;729;-63
2023/06/22 02:03:18;;;;;;;;;;;26.80;45.50;;;;;;1553289;75;762;-63
2023/06/22 02:05:20;;;;;;;;;;;26.90;45.50;;;;;;1557170;75;709;-63
2023/06/22 02:07:22;;;;;;;;;;;26.90;45.50;;;;;;1560147;75;653;-64
2023/06/22 02:09:24;;;;;;;;;;;26.80;45.50;;;;;;1556567;75;1060;-64
2023/06/22 02:11:27;;;;;;;;;;;26.80;45.50;;;;;;1542099;75;1925;-63
2023/06/22 02:13:29;;;;;;;;;;;26.70;45.50;;;;;;1553107;74;1531;-62
2023/06/22 02:15:31;;;;;;;;;;;26.80;45.50;;;;;;1548836;76;716;-63
2023/06/22 02:17:34;;;;;;;;;;;26.80;45.60;;;;;;1561808;74;1202;-63
2023/06/22 02:19:39;;;;;;;;;;;26.80;45.70;;;;;;1556685;74;768;-63
2023/06/22 02:21:40;;;;;;;;;;;26.70;45.70;;;;;;1558995;74;689;-65
2023/06/22 02:23:42;;;;;;;;;;;26.70;45.80;;;;;;1556198;74;750;-64
2023/06/22 02:25:44;;;;;;;;;;;26.70;45.70;;;;;;1563952;74;665;-63
2023/06/22 02:27:46;;;;;;;;;;;26.80;45.80;;;;;;1546805;74;1513;-63
2023/06/22 02:29:48;;;;;;;;;;;26.80;45.70;;;;;;1554149;74;740;-64
2023/06/22 02:31:50;;;;;;;;;;;26.80;45.80;;;;;;1551773;74;1935;-64
2023/06/22 02:33:52;;;;;;;;;;;26.70;45.90;;;;;;1566940;74;719;-64
2023/06/22 02:35:54;;;;;;;;;;;26.80;46.00;;;;;;1565985;76;725;-64
2023/06/22 02:37:56;;;;;;;;;;;26.70;46.00;;;;;;1567377;74;1123;-64
2023/06/22 02:39:57;;;;;;;;;;;26.70;46.00;;;;;;1565106;74;690;-63
2023/06/22 02:41:59;;;;;;;;;;;26.80;45.80;;;;;;1556523;76;1652;-63
2023/06/22 02:44:01;;;;;;;;;;;26.70;45.80;;;;;;1553050;74;748;-64
2023/06/22 02:46:03;;;;;;;;;;;26.70;45.80;;;;;;1558163;74;677;-63
2023/06/22 02:48:05;;;;;;;;;;;26.70;45.80;;;;;;1559514;74;1197;-64
2023/06/22 02:50:07;;;;;;;;;;;26.70;45.90;;;;;;1559027;74;684;-63
2023/06/22 02:52:09;;;;;;;;;;;26.70;45.80;;;;;;1560626;76;1934;-63
2023/06/22 02:54:11;;;;;;;;;;;26.80;45.70;;;;;;1558114;74;742;-66
2023/06/22 02:56:13;;;;;;;;;;;26.80;45.70;;;;;;1564622;74;1553;-65
2023/06/22 02:58:15;;;;;;;;;;;26.70;45.70;;;;;;1558639;74;1141;-63
2023/06/22 03:00:17;;;;;;;;;;;26.70;45.90;;;;;;1563627;74;685;-63
2023/06/22 03:02:21;;;;;;;;;;;26.80;45.70;;;;;;1557685;74;765;-63
2023/06/22 03:04:23;;;;;;;;;;;26.80;45.70;;;;;;1560750;74;773;-63
2023/06/22 03:06:28;;;;;;;;;;;26.80;45.80;;;;;;1564823;74;693;-63
2023/06/22 03:08:29;;;;;;;;;;;26.80;45.70;;;;;;1555564;74;1644;-64
2023/06/22 03:10:31;;;;;;;;;;;26.80;45.50;;;;;;1559347;74;1667;-64
2023/06/22 03:12:32;;;;;;;;;;;26.70;45.60;;;;;;1559626;74;1935;-65
2023/06/22 03:14:34;;;;;;;;;;;26.70;45.70;;;;;;1567668;76;695;-65
2023/06/22 03:16:36;;;;;;;;;;;26.70;45.60;;;;;;1560119;76;691;-64
2023/06/22 03:18:38;;;;;;;;;;;26.70;45.60;;;;;;1567931;74;1200;-64
2023/06/22 03:20:40;;;;;;;;;;;26.70;45.50;;;;;;1561061;75;755;-64
2023/06/22 03:22:43;;;;;;;;;;;26.70;45.80;;;;;;1567042;74;1326;-63
2023/06/22 03:24:45;;;;;;;;;;;26.70;45.90;;;;;;1568631;74;700;-64
2023/06/22 03:26:47;;;;;;;;;;;26.60;45.70;;;;;;1560899;76;793;-63
2023/06/22 03:28:49;;;;;;;;;;;26.70;45.50;;;;;;1568099;74;1149;-64
2023/06/22 03:30:51;;;;;;;;;;;26.70;45.60;;;;;;1560635;74;706;-64
2023/06/22 03:32:53;;;;;;;;;;;26.70;45.60;;;;;;1563150;74;1940;-64
2023/06/22 03:34:58;;;;;;;;;;;26.70;45.60;;;;;;1560343;74;760;-63
2023/06/22 03:36:58;;;;;;;;;;;26.70;45.50;;;;;;1557972;74;1695;-64
2023/06/22 03:39:00;;;;;;;;;;;26.70;45.40;;;;;;1567672;74;1134;-65
2023/06/22 03:41:02;;;;;;;;;;;26.70;45.30;;;;;;1554302;74;739;-66
2023/06/22 03:43:04;;;;;;;;;;;26.70;45.40;;;;;;1559279;76;753;-65
2023/06/22 03:45:06;;;;;;;;;;;26.70;45.30;;;;;;1556502;74;705;-64
2023/06/22 03:47:09;;;;;;;;;;;26.70;45.40;;;;;;1559022;74;681;-65
2023/06/22 03:49:11;;;;;;;;;;;26.70;45.50;;;;;;1564426;74;1171;-63
2023/06/22 03:51:13;;;;;;;;;;;26.70;45.60;;;;;;1557227;74;1567;-62
2023/06/22 03:53:15;;;;;;;;;;;26.70;45.40;;;;;;1568383;74;1942;-63
2023/06/22 03:55:16;;;;;;;;;;;26.70;45.60;;;;;;1566503;74;692;-63
2023/06/22 03:57:18;;;;;;;;;;;26.60;46.10;;;;;;1568079;74;693;-64
2023/06/22 03:59:20;;;;;;;;;;;26.70;45.80;;;;;;1551934;74;1127;-64
2023/06/22 04:01:22;;;;;;;;;;;26.70;45.80;;;;;;1557357;76;745;-66
2023/06/22 04:03:24;;;;;;;;;;;26.70;45.80;;;;;;1568254;74;698;-63
2023/06/22 04:05:26;;;;;;;;;;;26.70;45.70;;;;;;1560177;76;1752;-63
2023/06/22 04:07:28;;;;;;;;;;;26.60;46.10;;;;;;1563852;74;685;-62
2023/06/22 04:09:30;;;;;;;;;;;26.70;46.00;;;;;;1555446;74;1205;-63
2023/06/22 04:11:31;;;;;;;;;;;26.60;45.80;;;;;;1548124;74;742;-63
2023/06/22 04:13:33;;;;;;;;;;;26.60;46.00;;;;;;1566371;74;1950;-63
2023/06/22 04:15:35;;;;;;;;;;;26.70;46.00;;;;;;1539984;75;778;-63
2023/06/22 04:17:37;;;;;;;;;;;26.70;45.70;;;;;;1553489;75;1180;-62
2023/06/22 04:19:39;;;;;;;;;;;26.70;45.70;;;;;;1545629;75;1545;-63
2023/06/22 04:21:41;;;;;;;;;;;26.70;45.80;;;;;;1557734;75;766;-62
2023/06/22 04:23:43;;;;;;;;;;;26.70;45.60;;;;;;1538336;75;687;-62
2023/06/22 04:25:45;;;;;;;;;;;26.70;45.70;;;;;;1550321;75;647;-61
2023/06/22 04:27:47;;;;;;;;;;;26.60;45.80;;;;;;1570781;75;1188;-62
2023/06/22 04:29:49;;;;;;;;;;;26.50;45.90;;;;;;1546608;75;698;-62
2023/06/22 04:31:51;;;;;;;;;;;26.50;45.90;;;;;;1539457;75;1927;-61
2023/06/22 04:33:53;;;;;;;;;;;26.60;46.20;;;;;;1548158;75;1528;-64
2023/06/22 04:35:56;;;;;;;;;;;26.50;46.10;;;;;;1554345;75;754;-62
2023/06/22 04:37:58;;;;;;;;;;;26.60;45.80;;;;;;1545889;75;1143;-62
2023/06/22 04:40:00;;;;;;;;;;;26.70;46.00;;;;;;1543057;75;664;-63
2023/06/22 04:42:02;;;;;;;;;;;26.70;45.80;;;;;;1551076;75;752;-63
2023/06/22 04:44:05;;;;;;;;;;;26.70;45.80;;;;;;1554275;75;721;-64
2023/06/22 04:46:06;;;;;;;;;;;26.70;45.70;;;;;;1532825;75;705;-63
2023/06/22 04:48:09;;;;;;;;;;;26.60;45.90;;;;;;1550155;75;1503;-65
2023/06/22 04:50:12;;;;;;;;;;;26.60;46.00;;;;;;1558461;75;679;-63
2023/06/22 04:52:20;;;;;;;;;;;26.60;45.90;;;;;;1553456;75;1928;-63
2023/06/22 04:54:17;;;;;;;;;;;26.50;46.20;;;;;;1539812;75;1692;-63
2023/06/22 04:56:21;;;;;;;;;;;26.50;46.10;;;;;;1542552;75;747;-63
2023/06/22 04:58:22;;;;;;;;;;;26.50;46.20;;;;;;1547868;75;1624;-63
2023/06/22 05:00:24;;;;;;;;;;;26.50;46.10;;;;;;1537903;75;753;-63
2023/06/22 05:02:27;;;;;;;;;;;26.50;46.20;;;;;;1552953;75;1553;-63
2023/06/22 05:04:32;;;;;;;;;;;26.40;46.30;;;;;;1560907;75;707;-64
2023/06/22 05:06:34;;;;;;;;;;;26.50;46.40;;;;;;1563051;75;897;-63
2023/06/22 05:08:36;;;;;;;;;;;26.50;46.30;;;;;;1550261;75;1137;-64
2023/06/22 05:10:38;;;;;;;;;;;26.50;46.50;;;;;;1551758;75;744;-63
2023/06/22 05:12:40;;;;;;;;;;;26.40;46.50;;;;;;1548709;75;1931;-64
2023/06/22 05:14:42;;;;;;;;;;;26.40;46.50;;;;;;1552122;75;975;-64
2023/06/22 05:16:44;;;;;;;;;;;26.40;46.50;;;;;;1570195;74;1592;-65
2023/06/22 05:18:46;;;;;;;;;;;26.50;46.50;;;;;;1561664;74;1185;-64
2023/06/22 05:20:48;;;;;;;;;;;26.40;46.50;;;;;;1549344;74;669;-63
2023/06/22 05:22:50;;;;;;;;;;;26.40;46.60;;;;;;1550129;74;715;-64
2023/06/22 05:24:52;;;;;;;;;;;26.40;46.80;;;;;;1562963;74;722;-64
2023/06/22 05:26:53;;;;;;;;;;;26.40;46.80;;;;;;1553350;74;692;-63
2023/06/22 05:28:55;;;;;;;;;;;26.40;46.70;;;;;;1569934;74;1138;-64
2023/06/22 05:30:57;;;;;;;;;;;26.40;46.70;;;;;;1566848;74;1451;-64
2023/06/22 05:32:59;;;;;;;;;;;26.40;46.80;;;;;;1565488;74;1946;-64
2023/06/22 05:35:01;;;;;;;;;;;26.40;46.60;;;;;;1560787;74;708;-63
2023/06/22 05:37:03;;;;;;;;;;;26.40;46.80;;;;;;1564271;74;801;-64
2023/06/22 05:39:14;;;;;;;;;;;26.40;46.70;;;;;;1567104;74;1085;-63
2023/06/22 05:41:16;;;;;;;;;;;26.40;46.50;;;;;;1560228;74;687;-63
2023/06/22 05:43:18;;;;;;;;;;;26.40;46.80;;;;;;1562220;74;1452;-64
2023/06/22 05:45:20;;;;;;;;;;;26.50;46.90;;;;;;1571926;74;700;-63
2023/06/22 05:47:22;;;;;;;;;;;26.40;46.90;;;;;;1558744;74;676;-66
2023/06/22 05:49:29;;;;;;;;;;;26.50;46.80;;;;;;1578449;74;1150;-62
2023/06/22 05:51:28;;;;;;;;;;;26.40;46.50;;;;;;1564937;74;938;-64
2023/06/22 05:53:30;;;;;;;;;;;26.40;46.70;;;;;;1562256;74;1938;-63
2023/06/22 05:55:32;;;;;;;;;;;26.50;46.70;;;;;;1565513;74;669;-63
2023/06/22 05:57:34;;;;;;;;;;;26.50;46.60;;;;;;1567031;74;1367;-63
2023/06/22 05:59:36;;;;;;;;;;;26.50;46.60;;;;;;1559771;74;679;-63
2023/06/22 06:01:37;;;;;;;;;;;26.50;46.60;;;;;;1557421;74;688;-63
2023/06/22 06:03:41;;;;;;;;;;;26.50;46.70;;;;;;1550947;74;665;-63
2023/06/22 06:05:43;;;;;;;;;;;26.40;46.70;;;;;;1546620;74;695;-63
2023/06/22 06:07:45;;;;;;;;;;;26.40;46.70;;;;;;1577661;74;1145;-63
2023/06/22 06:09:47;;;;;;;;;;;26.40;46.70;;;;;;1554251;74;678;-64
2023/06/22 06:11:49;;;;;;;;;;;26.50;46.60;;;;;;1555234;74;1583;-63
2023/06/22 06:13:51;;;;;;;;;;;26.50;46.80;;;;;;1547036;74;1937;-63
2023/06/22 06:15:55;;;;;;;;;;;26.50;46.50;;;;;;1571718;74;1074;-64
2023/06/22 06:17:58;;;;;;;;;;;26.50;46.90;;;;;;1566360;74;1175;-64
2023/06/22 06:20:00;;;;;;;;;;;26.50;46.90;;;;;;1556095;74;669;-65
2023/06/22 06:22:02;;;;;;;;;;;26.40;46.80;;;;;;1573997;74;696;-63
2023/06/22 06:24:04;;;;;;;;;;;26.50;46.90;;;;;;1558586;75;727;-64
2023/06/22 06:26:06;;;;;;;;;;;26.50;47.80;;;;;;1563120;74;1543;-64
2023/06/22 06:28:08;;;;;;;;;;;26.60;47.80;;;;;;1568293;74;1100;-64
2023/06/22 06:30:14;;;;;;;;;;;26.70;47.10;;;;;;1556842;76;704;-63
2023/06/22 06:32:16;;;;;;;;;;;26.80;47.50;;;;;;1554604;76;1831;-62
2023/06/22 06:34:17;;;;;;;;;;;26.80;47.30;;;;;;1568377;74;1934;-64
2023/06/22 06:36:19;;;;;;;;;;;26.80;47.00;;;;;;1568037;74;737;-63
2023/06/22 06:38:21;;;;;;;;;;;26.90;46.40;;;;;;1558747;74;1150;-63
2023/06/22 06:40:23;;;;;;;;;;;27.00;46.80;;;;;;1557478;74;1554;-63
2023/06/22 06:42:25;;;;;;;;;;;27.10;46.60;;;;;;1553483;76;685;-63
2023/06/22 06:44:27;;;;;;;;;;;27.10;46.50;;;;;;1560530;74;662;-64
2023/06/22 06:46:29;;;;;;;;;;;27.20;46.30;;;;;;1564882;76;699;-63
2023/06/22 06:48:31;;;;;;;;;;;27.30;45.90;;;;;;1559014;74;1168;-65
2023/06/22 06:50:33;;;;;;;;;;;27.40;46.10;;;;;;1565187;76;735;-63
2023/06/22 06:52:35;;;;;;;;;;;27.40;45.50;;;;;;1559727;74;765;-62
2023/06/22 06:54:37;;;;;;;;;;;27.50;46.10;;;;;;1568021;74;1566;-63
2023/06/22 06:56:38;;;;;;;;;;;27.50;45.70;;;;;;1566271;74;676;-62
2023/06/22 06:58:46;;;;;;;;;;;27.50;45.50;;;;;;1552542;76;1236;-63
2023/06/22 07:00:45;;;;;;;;;;;27.70;45.20;;;;;;1563609;74;1525;-63
2023/06/22 07:02:48;;;;;;;;;;;27.70;45.20;;;;;;1553562;74;690;-64
2023/06/22 07:04:50;;;;;;;;;;;27.60;45.00;;;;;;1561717;74;708;-61
2023/06/22 07:06:51;;;;;;;;;;;27.70;45.00;;;;;;1568557;74;724;-63
2023/06/22 07:08:53;;;;;;;;;;;27.70;45.00;;;;;;1564723;74;1550;-63
2023/06/22 07:10:55;;;;;;;;;;;27.70;45.00;;;;;;1559822;74;858;-61
2023/06/22 07:12:57;;;;;;;;;;;27.70;44.60;;;;;;1549231;74;1929;-63
2023/06/22 07:15:04;;;;;;;;;;;27.70;44.60;;;;;;1558441;76;736;-65
2023/06/22 07:17:05;;;;;;;;;;;27.70;44.70;;;;;;1538553;75;1782;-63
2023/06/22 07:19:08;;;;;;;;;;;27.80;44.80;;;;;;1544390;75;1155;-64
2023/06/22 07:21:09;;;;;;;;;;;27.80;45.20;;;;;;1543977;75;673;-66
2023/06/22 07:23:11;;;;;;;;;;;27.80;44.70;;;;;;1545393;75;1547;-62
2023/06/22 07:25:17;;;;;;;;;;;27.80;44.90;;;;;;1558450;75;687;-63
2023/06/22 07:27:19;;;;;;;;;;;27.80;44.60;;;;;;1545717;75;883;-62
2023/06/22 07:29:21;;;;;;;;;;;27.80;45.20;;;;;;1551896;75;1077;-62
2023/06/22 07:31:25;;;;;;;;;;;27.80;44.70;;;;;;1543553;75;796;-62
2023/06/22 07:33:27;;;;;;;;;;;27.80;44.80;;;;;;1552286;75;1927;-63
2023/06/22 07:35:30;;;;;;;;;;;27.90;44.50;;;;;;1552756;75;734;-63
2023/06/22 07:37:33;;;;;;;;;;;27.80;44.70;;;;;;1548182;75;1571;-63
2023/06/22 07:39:37;;;;;;;;;;;27.80;44.80;;;;;;1544185;75;751;-63
2023/06/22 07:41:42;;;;;;;;;;;27.90;45.00;;;;;;1548114;75;1040;-62
2023/06/22 07:43:44;;;;;;;;;;;27.90;44.90;;;;;;1560140;75;736;-63
2023/06/22 07:45:52;;;;;;;;;;;28.00;45.70;;;;;;1544201;75;694;-64
2023/06/22 07:47:53;;;;;;;;;;;27.80;45.00;;;;;;1551617;75;1340;-63
2023/06/22 07:49:57;;;;;;;;;;;27.80;45.00;;;;;;1551366;75;1501;-64
2023/06/22 07:51:59;;;;;;;;;;;28.00;45.90;;;;;;1546088;75;1675;-63
2023/06/22 07:54:00;;;;;;;;;;;27.90;45.00;;;;;;1553132;75;1922;-63
2023/06/22 07:56:06;;;;;;;;;;;27.90;45.00;;;;;;1559863;75;675;-64
2023/06/22 07:58:06;;;;;;;;;;;27.90;45.00;;;;;;1560404;74;1425;-63
2023/06/22 08:00:15;;;;;;;;;;;27.90;45.10;;;;;;1558313;75;789;-63
2023/06/22 08:02:17;;;;;;;;;;;27.80;45.10;;;;;;1549402;75;682;-64
2023/06/22 08:04:19;;;;;;;;;;;27.90;45.40;;;;;;1552075;75;1550;-62
2023/06/22 08:06:21;;;;;;;;;;;27.90;45.50;;;;;;1557304;75;728;-63
2023/06/22 08:08:22;;;;;;;;;;;27.80;45.20;;;;;;1552266;75;1175;-63
2023/06/22 08:10:24;;;;;;;;;;;27.90;45.20;;;;;;1555201;75;716;-64
2023/06/22 08:12:26;;;;;;;;;;;27.90;45.20;;;;;;1541991;75;765;-63
2023/06/22 08:14:28;;;;;;;;;;;27.80;45.40;;;;;;1543731;75;1933;-62
2023/06/22 08:16:30;;;;;;;;;;;27.80;45.60;;;;;;1552475;75;1092;-65
2023/06/22 08:18:32;;;;;;;;;;;27.80;45.50;;;;;;1550431;75;1484;-64
2023/06/22 08:20:34;;;;;;;;;;;27.80;45.70;;;;;;1553689;75;726;-63
2023/06/22 08:22:40;;;;;;;;;;;27.80;45.70;;;;;;1551931;75;757;-63
2023/06/22 08:24:39;;;;;;;;;;;27.80;45.80;;;;;;1551660;75;1240;-63
2023/06/22 08:26:41;;;;;;;;;;;27.70;45.90;;;;;;1549618;75;677;-63
2023/06/22 08:28:43;;;;;;;;;;;27.70;46.00;;;;;;1545071;75;1128;-64
2023/06/22 08:30:45;;;;;;;;;;;27.80;45.70;;;;;;1550279;75;682;-64
2023/06/22 08:32:47;;;;;;;;;;;27.70;45.70;;;;;;1551475;75;1526;-63
2023/06/22 08:34:49;;;;;;;;;;;27.80;45.60;;;;;;1557443;75;1914;-63
2023/06/22 08:36:52;;;;;;;;;;;27.80;45.50;;;;;;1555012;75;672;-64
2023/06/22 08:38:54;;;;;;;;;;;27.90;45.40;;;;;;1547860;75;1143;-64
2023/06/22 08:40:56;;;;;;;;;;;28.00;45.90;;;;;;1553974;75;795;-66
2023/06/22 08:42:58;;;;;;;;;;;27.90;45.30;;;;;;1535042;75;739;-62
2023/06/22 08:45:00;;;;;;;;;;;27.90;45.30;;;;;;1551951;75;637;-63
2023/06/22 08:47:03;;;;;;;;;;;27.90;45.40;;;;;;1542506;75;1589;-64
2023/06/22 08:49:06;;;;;;;;;;;27.90;45.30;;;;;;1554784;75;1146;-63
2023/06/22 08:51:07;;;;;;;;;;;28.00;46.00;;;;;;1548360;75;676;-63
2023/06/22 08:53:09;;;;;;;;;;;27.90;45.20;;;;;;1544460;75;666;-63
2023/06/22 08:55:11;;;;;;;;;;;27.90;45.40;;;;;;1560922;75;1938;-64
2023/06/22 08:57:13;;;;;;;;;;;27.90;45.50;;;;;;1557789;75;745;-64
2023/06/22 08:59:15;;;;;;;;;;;28.00;45.90;;;;;;1548533;75;1123;-64
2023/06/22 09:01:17;;;;;;;;;;;27.90;45.20;;;;;;1552114;75;1562;-62
2023/06/22 09:03:20;;;;;;;;;;;27.90;45.30;;;;;;1544783;75;777;-62
2023/06/22 09:05:22;;;;;;;;;;;28.00;45.90;;;;;;1548894;75;683;-63
2023/06/22 09:07:25;;;;;;;;;;;28.00;45.90;;;;;;1553945;75;662;-63
2023/06/22 09:09:27;;;;;;;;;;;27.90;45.20;;;;;;1536865;75;1136;-63
2023/06/22 09:11:29;;;;;;;;;;;27.90;45.30;;;;;;1548578;75;766;-63
2023/06/22 09:13:31;;;;;;;;;;;27.90;45.40;;;;;;1540021;75;1941;-63
2023/06/22 09:15:34;;;;;;;;;;;28.00;46.10;;;;;;1542133;75;1451;-63
2023/06/22 09:17:36;;;;;;;;;;;27.90;45.30;;;;;;1546611;75;1165;-63
2023/06/22 09:19:38;;;;;;;;;;;27.90;45.60;;;;;;1567358;75;812;-63
2023/06/22 09:21:40;;;;;;;;;;;27.90;45.20;;;;;;1553775;75;585;-64
2023/06/22 09:23:42;;;;;;;;;;;27.90;45.40;;;;;;1545631;75;730;-63
2023/06/22 09:25:44;;;;;;;;;;;27.90;45.50;;;;;;1553737;75;656;-63
2023/06/22 09:27:46;;;;;;;;;;;28.00;46.00;;;;;;1545026;75;1166;-64
2023/06/22 09:29:47;;;;;;;;;;;27.90;45.60;;;;;;1551515;75;1528;-65
2023/06/22 09:31:49;;;;;;;;;;;27.80;45.40;;;;;;1553359;75;683;-63
2023/06/22 09:33:54;;;;;;;;;;;27.90;45.70;;;;;;1548483;75;1939;-63
2023/06/22 09:35:56;;;;;;;;;;;27.80;45.70;;;;;;1552901;75;726;-65
2023/06/22 09:37:58;;;;;;;;;;;27.80;45.80;;;;;;1557017;75;1080;-64
2023/06/22 09:40:00;;;;;;;;;;;27.80;45.70;;;;;;1552020;75;614;-63
2023/06/22 09:42:02;;;;;;;;;;;27.90;45.70;;;;;;1532823;75;706;-63
2023/06/22 09:44:04;;;;;;;;;;;27.90;45.60;;;;;;1554767;75;1782;-64
2023/06/22 09:46:07;;;;;;;;;;;27.80;45.90;;;;;;1554986;75;739;-64
2023/06/22 09:48:09;;;;;;;;;;;27.80;45.80;;;;;;1503285;77;1138;-63
2023/06/22 09:50:11;;;;;;;;;;;27.80;46.00;;;;;;1565309;75;677;-63
2023/06/22 09:52:13;;;;;;;;;;;27.80;46.10;;;;;;1550749;75;774;-64
2023/06/22 09:54:15;;;;;;;;;;;27.70;46.10;;;;;;1552194;75;1934;-63
2023/06/22 09:56:17;;;;;;;;;;;27.70;46.20;;;;;;1560184;75;757;-63
2023/06/22 09:58:19;;;;;;;;;;;27.70;46.10;;;;;;1565284;75;1673;-63
2023/06/22 10:00:21;;;;;;;;;;;27.80;46.10;;;;;;1555855;75;720;-63
2023/06/22 10:02:23;;;;;;;;;;;27.70;46.00;;;;;;1562149;75;747;-63
2023/06/22 10:04:25;;;;;;;;;;;27.50;46.30;;;;;;1546798;75;633;-63
2023/06/22 10:06:27;;;;;;;;;;;27.70;46.10;;;;;;1555886;75;789;-63
2023/06/22 10:08:29;;;;;;;;;;;27.80;46.10;;;;;;1570399;75;1266;-63
2023/06/22 10:10:31;;;;;;;;;;;27.80;46.30;;;;;;1544630;75;1531;-64
2023/06/22 10:12:33;;;;;;;;;;;27.80;46.20;;;;;;1555372;75;683;-63
2023/06/22 10:14:34;;;;;;;;;;;27.80;46.20;;;;;;1562868;75;1933;-64
2023/06/22 10:16:36;;;;;;;;;;;27.80;46.50;;;;;;1560085;75;755;-63
2023/06/22 10:18:38;;;;;;;;;;;27.70;46.60;;;;;;1564816;74;1175;-63
2023/06/22 10:20:40;;;;;;;;;;;27.70;46.10;;;;;;1566231;74;706;-63
2023/06/22 10:22:42;;;;;;;;;;;27.70;46.00;;;;;;1560779;76;717;-63
2023/06/22 10:24:45;;;;;;;;;;;27.80;46.00;;;;;;1560328;74;1535;-64
2023/06/22 10:26:47;;;;;;;;;;;27.70;46.50;;;;;;1549754;74;785;-63
2023/06/22 10:28:49;;;;;;;;;;;27.70;46.10;;;;;;1558452;74;1147;-63
2023/06/22 10:30:51;;;;;;;;;;;27.80;46.50;;;;;;1569697;74;690;-63
2023/06/22 10:32:53;;;;;;;;;;;27.70;46.20;;;;;;1557992;74;721;-63
2023/06/22 10:34:55;;;;;;;;;;;27.70;46.50;;;;;;1566229;74;1942;-63
2023/06/22 10:36:57;;;;;;;;;;;27.70;46.80;;;;;;1565869;76;783;-64
2023/06/22 10:38:59;;;;;;;;;;;27.70;46.20;;;;;;1561864;74;1521;-63
2023/06/22 10:41:01;;;;;;;;;;;27.60;46.30;;;;;;1566258;74;711;-63
2023/06/22 10:43:03;;;;;;;;;;;27.60;46.30;;;;;;1562342;76;668;-63
2023/06/22 10:45:05;;;;;;;;;;;27.70;46.40;;;;;;1562680;74;684;-63
2023/06/22 10:47:07;;;;;;;;;;;27.70;46.30;;;;;;1559598;74;709;-63
2023/06/22 10:49:09;;;;;;;;;;;27.70;46.50;;;;;;1552695;74;1108;-63
2023/06/22 10:51:11;;;;;;;;;;;27.70;46.50;;;;;;1559848;74;694;-63
2023/06/22 10:53:13;;;;;;;;;;;27.60;46.50;;;;;;1560857;74;1639;-63
2023/06/22 10:55:14;;;;;;;;;;;27.60;46.30;;;;;;1560304;74;1930;-66
2023/06/22 10:57:16;;;;;;;;;;;27.70;46.50;;;;;;1561625;74;730;-64
2023/06/22 10:59:20;;;;;;;;;;;27.70;46.70;;;;;;1562827;74;1102;-64
2023/06/22 11:01:22;;;;;;;;;;;27.70;46.50;;;;;;1557547;74;742;-63
2023/06/22 11:03:23;;;;;;;;;;;27.70;46.50;;;;;;1553085;76;668;-63
2023/06/22 11:05:25;;;;;;;;;;;27.70;46.30;;;;;;1554870;76;689;-63
2023/06/22 11:07:28;;;;;;;;;;;27.70;46.30;;;;;;1558058;74;1490;-65
2023/06/22 11:09:31;;;;;;;;;;;27.70;46.30;;;;;;1565466;74;1199;-63
2023/06/22 11:11:33;;;;;;;;;;;27.70;46.50;;;;;;1545925;74;729;-63
2023/06/22 11:13:35;;;;;;;;;;;27.70;46.50;;;;;;1566871;74;675;-62
2023/06/22 11:15:36;;;;;;;;;;;27.80;46.50;;;;;;1560231;74;1943;-64
2023/06/22 11:17:38;;;;;;;;;;;27.70;46.50;;;;;;1561985;74;1141;-64
2023/06/22 11:19:40;;;;;;;;;;;27.70;46.60;;;;;;1560206;75;1074;-65
2023/06/22 11:21:42;;;;;;;;;;;27.70;46.60;;;;;;1562846;74;1584;-62
2023/06/22 11:23:44;;;;;;;;;;;27.70;46.40;;;;;;1564118;76;731;-63
2023/06/22 11:25:46;;;;;;;;;;;27.70;47.00;;;;;;1552863;74;686;-62
2023/06/22 11:27:48;;;;;;;;;;;27.70;46.90;;;;;;1567021;74;1188;-64
2023/06/22 11:29:49;;;;;;;;;;;27.70;46.90;;;;;;1555588;74;826;-63
2023/06/22 11:31:51;;;;;;;;;;;27.70;46.90;;;;;;1552854;74;703;-63
2023/06/22 11:33:53;;;;;;;;;;;27.70;46.80;;;;;;1560688;76;678;-65
2023/06/22 11:35:56;;;;;;;;;;;27.70;46.80;;;;;;1565985;74;1924;-62
2023/06/22 11:37:58;;;;;;;;;;;27.70;46.80;;;;;;1558330;74;1131;-64
2023/06/22 11:40:00;;;;;;;;;;;27.70;46.70;;;;;;1546056;74;804;-66
2023/06/22 11:42:02;;;;;;;;;;;27.70;47.10;;;;;;1557796;74;726;-62
2023/06/22 11:44:04;;;;;;;;;;;27.70;47.10;;;;;;1564464;74;741;-62
2023/06/22 11:46:06;;;;;;;;;;;27.70;47.10;;;;;;1541588;74;699;-63
2023/06/22 11:48:08;;;;;;;;;;;27.70;47.00;;;;;;1566160;74;1088;-63
2023/06/22 11:50:10;;;;;;;;;;;27.70;46.90;;;;;;1557652;74;1649;-62
2023/06/22 11:52:12;;;;;;;;;;;27.70;46.70;;;;;;1560366;74;758;-62
2023/06/22 11:54:14;;;;;;;;;;;27.70;46.70;;;;;;1551935;74;660;-62
2023/06/22 11:56:15;;;;;;;;;;;27.80;46.40;;;;;;1563213;74;1946;-63
2023/06/22 11:58:17;;;;;;;;;;;27.70;46.30;;;;;;1567651;74;1148;-63
2023/06/22 12:00:20;;;;;;;;;;;27.70;46.20;;;;;;1559360;74;781;-64
2023/06/22 12:02:22;;;;;;;;;;;27.70;46.30;;;;;;1563022;74;724;-63
2023/06/22 12:04:24;;;;;;;;;;;27.70;46.20;;;;;;1567105;74;1582;-64
2023/06/22 12:06:26;;;;;;;;;;;27.70;46.20;;;;;;1565389;74;685;-67
2023/06/22 12:08:28;;;;;;;;;;;27.70;46.00;;;;;;1554378;74;1178;-64
2023/06/22 12:10:30;;;;;;;;;;;27.70;46.10;;;;;;1552309;74;733;-64